If you wish to contribute or participate in the discussions about articles you are invited to join SKYbrary as a registered user

 Actions

Nakashibetsu Airport

From SKYbrary Wiki

RJCN
Airport
ICAO: RJCN – IATA: SHB
Summary
Name Nakashibetsu Airport
Region Asia and Pacific
Territory Japan JP.gif
Location Nakashibetsu, Hokkaidō
Serving Nakashibetsu
Elevation 65.227 m
214 ft65.227 m
Coordinates 43° 34' 23.76" N, 144° 57' 24.29" E
Runways
Designator Length Width Surface ROPS
8/26 1999 m6,558.399 ft
46 m150.919 ft
ASP /


METAR
Observation RJCN 190200Z 04012KT 1600 -DZ BR FEW001 BKN002 03/03 Q1008
Station Nakashibetsu Airport
Date/Time 19 April 2019 02:00:00
Wind direction 40°
Wind speed 12 kts
Lowest cloud amount few clouds
Temperature 3°C
Dew point 3°C
Humidity 100%
QNH 1008 hPa
Weather condition n/a

Airport located 2 nm3,704 m
3.704 km
12,152.231 ft
from Nakashibetsu, Hokkaidō, Japan.

Climatology

Humid continental climate (Köppen climate classification Dfb)

Maps

Terrain

Loading map...

Airport Layout

Loading map...


Accidents & Serious Incidents at or in vicinity of RJCN

None on SKYbrary